Time;durP1;ratioP1;P1;durP2;ratioP2;P2;SDS_P1;SDS_P2;PMS_P1;PMS_P2;Temp;Humidity;BMP_temperature;BMP_pressure;BME280_temperature;BME280_humidity;BME280_pressure;Samples;Min_cycle;Max_cycle;Signal;HPM_P1;HPM_P2
2021/04/14 00:00:28;;;;;;;12.88;7.57;;;10.70;68.20;;;;;;5105284;28;20417;-76
2021/04/14 00:02:56;;;;;;;12.70;6.90;;;10.70;68.20;;;;;;5103987;28;20530;-75
2021/04/14 00:05:26;;;;;;;15.68;7.20;;;10.70;68.30;;;;;;5102681;28;20440;-75
2021/04/14 00:07:53;;;;;;;12.73;7.40;;;10.70;68.10;;;;;;5092534;28;20426;-75
2021/04/14 00:10:22;;;;;;;13.02;7.40;;;10.60;68.00;;;;;;5097415;28;20610;-75
2021/04/14 00:12:49;;;;;;;13.25;7.70;;;10.60;68.20;;;;;;5102124;28;20412;-74
2021/04/14 00:15:20;;;;;;;13.13;7.53;;;10.60;68.50;;;;;;5111506;28;20459;-75
2021/04/14 00:17:46;;;;;;;15.13;7.40;;;10.50;68.90;;;;;;5095047;28;20800;-75
2021/04/14 00:20:15;;;;;;;12.02;7.38;;;10.50;68.90;;;;;;5104104;28;20803;-75
2021/04/14 00:22:42;;;;;;;11.60;7.33;;;10.50;69.20;;;;;;5107280;28;20432;-74
2021/04/14 00:25:11;;;;;;;14.35;7.20;;;10.50;69.40;;;;;;5103210;28;20950;-73
2021/04/14 00:27:38;;;;;;;13.07;7.37;;;10.40;69.40;;;;;;5109268;28;20814;-74
2021/04/14 00:30:07;;;;;;;12.80;7.40;;;10.40;69.80;;;;;;5097138;28;20412;-73
2021/04/14 00:32:33;;;;;;;12.43;6.90;;;10.40;70.20;;;;;;5088796;28;20416;-73
2021/04/14 00:35:00;;;;;;;15.90;7.25;;;10.40;70.50;;;;;;5090612;28;20816;-74
2021/04/14 00:37:27;;;;;;;13.25;7.53;;;10.40;70.40;;;;;;5099637;28;20521;-73
2021/04/14 00:39:54;;;;;;;15.77;7.40;;;10.40;70.50;;;;;;5109927;28;20527;-73
2021/04/14 00:42:20;;;;;;;12.48;6.80;;;10.40;70.60;;;;;;5086498;28;20888;-74
2021/04/14 00:44:48;;;;;;;12.43;7.00;;;10.30;70.60;;;;;;5087159;28;20414;-74
2021/04/14 00:47:14;;;;;;;12.05;6.90;;;10.30;70.70;;;;;;5089260;28;20820;-74
2021/04/14 00:49:40;;;;;;;12.57;7.13;;;10.30;70.90;;;;;;5077882;28;21137;-73
2021/04/14 00:52:07;;;;;;;11.88;6.70;;;10.30;71.20;;;;;;5090546;28;20412;-74
2021/04/14 00:54:34;;;;;;;11.43;6.63;;;10.30;71.30;;;;;;5081677;28;20429;-74
2021/04/14 00:57:01;;;;;;;11.57;6.60;;;10.30;71.70;;;;;;5093295;28;20409;-74
2021/04/14 00:59:27;;;;;;;12.32;6.70;;;10.20;71.50;;;;;;5097337;28;20409;-75
2021/04/14 01:01:53;;;;;;;10.45;6.63;;;10.20;71.50;;;;;;5097237;28;20442;-74
2021/04/14 01:04:21;;;;;;;13.45;7.15;;;10.20;71.70;;;;;;5096303;28;20805;-75
2021/04/14 01:06:48;;;;;;;14.77;7.10;;;10.20;71.80;;;;;;5081316;28;20444;-74
2021/04/14 01:09:14;;;;;;;13.02;6.78;;;10.20;71.50;;;;;;5074260;28;20465;-74
2021/04/14 01:11:41;;;;;;;11.38;6.93;;;10.10;71.90;;;;;;5088389;28;20426;-73
2021/04/14 01:14:09;;;;;;;10.32;6.40;;;10.10;72.30;;;;;;5089722;28;20420;-74
2021/04/14 01:16:35;;;;;;;13.98;7.28;;;10.10;72.90;;;;;;5100035;28;20882;-74
2021/04/14 01:19:02;;;;;;;12.90;6.82;;;10.10;73.10;;;;;;5091337;28;20475;-74
2021/04/14 01:21:35;;;;;;;12.47;6.67;;;10.00;73.40;;;;;;5095192;28;20406;-74
2021/04/14 01:24:01;;;;;;;13.83;6.33;;;10.00;73.90;;;;;;5105312;28;20473;-74
2021/04/14 01:26:28;;;;;;;12.63;6.60;;;9.90;73.90;;;;;;5102661;28;20413;-74
2021/04/14 01:28:54;;;;;;;10.55;6.70;;;9.90;73.70;;;;;;5095849;28;20781;-73
2021/04/14 01:31:32;;;;;;;10.93;6.95;;;9.80;73.80;;;;;;5102829;28;20425;-74
2021/04/14 01:34:00;;;;;;;13.05;7.25;;;9.80;74.20;;;;;;5093605;28;20432;-73
2021/04/14 01:36:26;;;;;;;13.45;6.70;;;9.80;74.60;;;;;;5097651;28;20413;-75
2021/04/14 01:38:54;;;;;;;12.93;6.85;;;9.70;74.90;;;;;;5096009;28;20950;-74
2021/04/14 01:41:20;;;;;;;13.82;7.00;;;9.70;74.90;;;;;;5102596;28;20409;-75
2021/04/14 01:43:47;;;;;;;12.85;6.95;;;9.70;75.20;;;;;;5092451;28;20414;-75
2021/04/14 01:46:13;;;;;;;13.02;6.97;;;9.60;75.50;;;;;;5077414;28;20451;-74
2021/04/14 01:48:41;;;;;;;11.95;6.90;;;9.50;75.70;;;;;;5095257;28;20450;-74
2021/04/14 01:51:07;;;;;;;11.45;6.85;;;9.50;75.70;;;;;;5078695;28;20483;-74
2021/04/14 01:53:34;;;;;;;12.95;6.57;;;9.50;76.10;;;;;;5100116;28;20414;-74
2021/04/14 01:56:01;;;;;;;13.57;6.87;;;9.50;76.10;;;;;;5091415;28;20421;-74
2021/04/14 01:58:30;;;;;;;11.30;6.85;;;9.40;76.80;;;;;;5098610;28;20442;-74
2021/04/14 02:00:59;;;;;;;9.88;6.40;;;9.40;77.70;;;;;;5106972;28;20419;-74
2021/04/14 02:03:28;;;;;;;14.13;7.00;;;9.40;78.10;;;;;;5097067;28;20407;-74
2021/04/14 02:05:54;;;;;;;12.13;6.70;;;9.40;77.60;;;;;;5098431;28;20433;-74
2021/04/14 02:08:21;;;;;;;12.43;7.30;;;9.40;76.80;;;;;;5102900;28;20589;-73
2021/04/14 02:10:48;;;;;;;11.23;6.97;;;9.40;77.00;;;;;;5105311;28;20424;-76
2021/04/14 02:13:17;;;;;;;13.35;7.35;;;9.40;77.80;;;;;;5091721;28;20401;-75
2021/04/14 02:15:43;;;;;;;12.73;6.85;;;9.40;77.30;;;;;;5102533;28;20412;-73
2021/04/14 02:18:10;;;;;;;11.20;7.00;;;9.40;77.60;;;;;;5087455;28;20454;-73
2021/04/14 02:20:37;;;;;;;13.88;7.30;;;9.40;77.70;;;;;;5087225;28;20416;-74
2021/04/14 02:23:15;;;;;;;12.32;6.70;;;9.40;77.40;;;;;;5078110;28;20922;-75
2021/04/14 02:25:42;;;;;;;11.40;7.10;;;9.40;77.60;;;;;;5098752;28;20436;-75
2021/04/14 02:28:09;;;;;;;10.32;6.75;;;9.40;77.50;;;;;;5098149;28;20414;-75
2021/04/14 02:30:37;;;;;;;14.70;8.18;;;9.40;77.80;;;;;;5098649;28;20984;-73
2021/04/14 02:33:05;;;;;;;18.65;10.73;;;9.40;78.00;;;;;;5105253;28;20412;-73
2021/04/14 02:35:33;;;;;;;14.40;8.60;;;9.40;78.20;;;;;;5096497;28;20499;-74
2021/04/14 02:37:59;;;;;;;13.55;9.00;;;9.40;78.20;;;;;;5089449;28;20510;-76
2021/04/14 02:40:26;;;;;;;13.30;8.88;;;9.40;78.20;;;;;;5076142;28;20429;-74
2021/04/14 02:42:52;;;;;;;13.53;8.57;;;9.30;77.80;;;;;;5088302;28;20414;-74
2021/04/14 02:45:21;;;;;;;13.35;8.35;;;9.30;77.80;;;;;;5097738;28;20770;-74
2021/04/14 02:47:48;;;;;;;14.23;8.20;;;9.30;78.00;;;;;;5090565;28;20406;-74
2021/04/14 02:50:15;;;;;;;13.40;8.35;;;9.20;78.20;;;;;;5089051;28;20422;-74
2021/04/14 02:52:42;;;;;;;12.63;7.63;;;9.20;78.10;;;;;;5089580;28;20773;-73
2021/04/14 02:55:11;;;;;;;13.20;8.10;;;9.20;78.00;;;;;;5073111;28;20430;-74
2021/04/14 02:57:37;;;;;;;14.38;7.95;;;9.20;78.50;;;;;;5101738;28;20403;-74
2021/04/14 03:00:06;;;;;;;14.00;8.50;;;9.20;78.80;;;;;;5095806;28;20900;-74
2021/04/14 03:02:34;;;;;;;14.00;8.65;;;9.20;78.80;;;;;;5075226;28;20485;-73
2021/04/14 03:05:01;;;;;;;15.95;9.13;;;9.20;79.30;;;;;;5098119;28;20439;-74
2021/04/14 03:07:28;;;;;;;16.10;8.73;;;9.20;80.30;;;;;;5096432;28;20418;-74
2021/04/14 03:09:54;;;;;;;15.27;8.90;;;9.20;80.90;;;;;;5107068;28;20412;-74
2021/04/14 03:12:21;;;;;;;16.02;9.05;;;9.20;81.00;;;;;;5096483;28;20900;-75
2021/04/14 03:14:47;;;;;;;13.77;8.23;;;9.20;80.80;;;;;;5088972;28;20439;-73
2021/04/14 03:17:14;;;;;;;13.38;8.35;;;9.20;80.70;;;;;;5100692;28;20416;-74
2021/04/14 03:19:40;;;;;;;14.90;8.90;;;9.30;80.70;;;;;;5103400;28;20432;-74
2021/04/14 03:22:08;;;;;;;11.90;8.25;;;9.30;80.40;;;;;;5075997;28;20503;-74
2021/04/14 03:24:34;;;;;;;14.05;8.82;;;9.30;80.70;;;;;;5091916;28;20420;-74
2021/04/14 03:27:00;;;;;;;15.38;8.68;;;9.30;80.70;;;;;;5074361;28;20937;-74
2021/04/14 03:29:27;;;;;;;16.07;9.13;;;9.30;80.70;;;;;;5098766;28;20420;-74
2021/04/14 03:31:53;;;;;;;14.23;8.77;;;9.30;80.50;;;;;;5097633;28;20427;-74
2021/04/14 03:34:20;;;;;;;16.67;9.10;;;9.40;80.30;;;;;;5095593;28;20765;-74
2021/04/14 03:36:46;;;;;;;15.80;9.80;;;9.30;80.30;;;;;;5106831;28;20416;-74
2021/04/14 03:39:13;;;;;;;17.45;9.95;;;9.30;80.30;;;;;;5097127;28;20426;-74
2021/04/14 03:41:40;;;;;;;19.75;10.98;;;9.30;80.70;;;;;;5085154;28;20500;-75
2021/04/14 03:44:07;;;;;;;16.70;11.13;;;9.30;81.10;;;;;;5094297;28;20955;-73
2021/04/14 03:46:33;;;;;;;20.98;12.30;;;9.30;81.10;;;;;;5091104;28;20511;-74
2021/04/14 03:49:00;;;;;;;18.60;13.07;;;9.30;81.30;;;;;;5090985;28;20428;-74
2021/04/14 03:51:26;;;;;;;23.45;15.23;;;9.30;81.50;;;;;;5112735;28;20420;-74
2021/04/14 03:53:53;;;;;;;21.27;15.10;;;9.30;81.70;;;;;;5105947;28;20430;-75
2021/04/14 03:56:22;;;;;;;24.52;15.75;;;9.30;81.80;;;;;;5087818;28;20529;-74
2021/04/14 03:58:51;;;;;;;25.65;16.95;;;9.30;82.40;;;;;;5093502;28;20424;-74
2021/04/14 04:01:22;;;;;;;25.17;17.53;;;9.30;81.90;;;;;;5081219;28;20412;-75
2021/04/14 04:03:50;;;;;;;27.70;17.27;;;9.30;82.60;;;;;;5102895;28;20413;-75
2021/04/14 04:06:17;;;;;;;26.63;18.05;;;9.20;82.20;;;;;;5094027;28;20474;-74
2021/04/14 04:08:43;;;;;;;27.53;17.57;;;9.20;83.10;;;;;;5108275;28;20420;-74
2021/04/14 04:11:11;;;;;;;26.33;17.77;;;9.20;83.70;;;;;;5092582;28;20410;-74
2021/04/14 04:13:38;;;;;;;27.35;18.85;;;9.20;83.70;;;;;;5092136;28;20401;-73
2021/04/14 04:16:05;;;;;;;27.45;18.38;;;9.20;84.10;;;;;;5110631;28;20423;-75
2021/04/14 04:18:33;;;;;;;28.42;19.25;;;9.20;84.00;;;;;;5099764;28;20411;-74
2021/04/14 04:20:59;;;;;;;30.20;19.30;;;9.20;84.20;;;;;;5096403;28;20387;-75
2021/04/14 04:23:26;;;;;;;29.13;19.20;;;9.20;84.00;;;;;;5093494;28;20883;-74
2021/04/14 04:25:53;;;;;;;30.38;19.55;;;9.20;84.00;;;;;;5089955;28;20421;-74
2021/04/14 04:28:20;;;;;;;30.33;20.33;;;9.20;83.60;;;;;;5096591;28;20822;-74
2021/04/14 04:30:49;;;;;;;30.38;21.35;;;9.20;84.20;;;;;;5095765;28;20856;-74
2021/04/14 04:33:15;;;;;;;30.00;20.30;;;9.20;84.00;;;;;;5093120;28;20441;-73
2021/04/14 04:35:41;;;;;;;30.25;20.58;;;9.20;84.20;;;;;;5109741;28;20419;-74
2021/04/14 04:38:08;;;;;;;32.15;19.58;;;9.10;84.40;;;;;;5096746;28;20418;-74
2021/04/14 04:40:34;;;;;;;27.73;18.92;;;9.10;84.60;;;;;;5091820;28;20501;-75
2021/04/14 04:43:01;;;;;;;29.85;19.70;;;9.10;84.60;;;;;;5090045;28;20426;-74
2021/04/14 04:45:30;;;;;;;28.85;19.30;;;9.10;84.70;;;;;;5076982;28;20415;-75
2021/04/14 04:47:58;;;;;;;29.35;19.50;;;9.00;84.90;;;;;;5069051;28;20423;-73
2021/04/14 04:50:27;;;;;;;30.60;19.98;;;9.00;84.50;;;;;;5073615;28;20486;-76
2021/04/14 04:52:54;;;;;;;29.00;19.35;;;9.00;84.50;;;;;;5073103;28;20419;-74
2021/04/14 04:55:21;;;;;;;30.85;19.27;;;8.90;84.50;;;;;;5090733;28;20826;-75
2021/04/14 04:57:48;;;;;;;31.13;18.30;;;8.90;84.70;;;;;;5086406;28;20409;-75
2021/04/14 05:00:15;;;;;;;28.00;17.13;;;8.90;84.80;;;;;;5079888;28;20411;-74
2021/04/14 05:02:42;;;;;;;24.40;16.77;;;8.90;85.00;;;;;;5067135;28;20506;-75
2021/04/14 05:05:15;;;;;;;26.25;16.88;;;8.90;85.20;;;;;;5070246;28;20411;-75
2021/04/14 05:07:41;;;;;;;24.13;16.85;;;8.90;85.60;;;;;;5075896;28;20407;-74
2021/04/14 05:10:10;;;;;;;29.25;18.05;;;8.90;85.90;;;;;;5070612;28;20411;-76
2021/04/14 05:12:37;;;;;;;26.15;17.40;;;8.90;86.20;;;;;;5070886;28;20750;-73
2021/04/14 05:15:04;;;;;;;28.35;17.00;;;8.90;86.30;;;;;;5070163;28;20742;-75
2021/04/14 05:17:30;;;;;;;25.73;17.75;;;8.90;86.50;;;;;;5080543;28;20415;-74
2021/04/14 05:19:56;;;;;;;26.15;17.38;;;8.90;86.60;;;;;;5076162;28;20886;-74
2021/04/14 05:22:24;;;;;;;24.40;16.75;;;8.90;86.80;;;;;;5068890;28;20407;-74
2021/04/14 05:24:50;;;;;;;24.07;16.53;;;8.90;86.70;;;;;;5075585;28;20939;-73
2021/04/14 05:27:17;;;;;;;25.17;16.05;;;8.90;86.80;;;;;;5078980;28;20530;-72
2021/04/14 05:29:44;;;;;;;25.90;16.05;;;8.90;87.00;;;;;;5083291;28;20930;-72
2021/04/14 05:32:10;;;;;;;28.23;16.80;;;8.90;86.50;;;;;;5069979;28;20455;-73
2021/04/14 05:34:36;;;;;;;26.73;16.58;;;8.90;86.90;;;;;;5087241;28;20418;-73
2021/04/14 05:37:03;;;;;;;26.52;17.05;;;9.00;86.90;;;;;;5073857;28;20416;-71
2021/04/14 05:39:30;;;;;;;26.20;16.63;;;8.90;86.70;;;;;;5075448;28;20495;-73
2021/04/14 05:41:56;;;;;;;26.88;17.10;;;9.00;87.30;;;;;;5075408;28;20568;-74
2021/04/14 05:44:23;;;;;;;30.50;16.90;;;9.00;87.50;;;;;;5067778;28;20877;-74
2021/04/14 05:46:49;;;;;;;29.77;17.02;;;9.10;87.90;;;;;;5084573;28;20414;-74
2021/04/14 05:49:16;;;;;;;24.55;17.80;;;9.10;87.60;;;;;;5081327;28;20896;-74
2021/04/14 05:51:42;;;;;;;25.83;17.77;;;9.10;87.60;;;;;;5087114;28;20440;-74
2021/04/14 05:54:09;;;;;;;25.30;16.70;;;9.20;87.70;;;;;;5072094;28;20431;-74
2021/04/14 05:56:36;;;;;;;23.25;16.08;;;9.20;87.60;;;;;;5070444;28;20423;-74
2021/04/14 05:59:02;;;;;;;23.48;16.77;;;9.20;87.20;;;;;;5086522;28;20769;-74
2021/04/14 06:01:32;;;;;;;25.10;15.85;;;9.20;87.00;;;;;;5070477;28;20776;-74
2021/04/14 06:04:01;;;;;;;25.35;15.27;;;9.30;86.90;;;;;;5070101;28;20922;-75
2021/04/14 06:06:27;;;;;;;23.58;14.32;;;9.30;86.50;;;;;;5075939;28;20426;-75
2021/04/14 06:08:53;;;;;;;23.27;14.32;;;9.30;86.30;;;;;;5076014;28;20416;-75
2021/04/14 06:11:20;;;;;;;26.35;15.00;;;9.30;86.50;;;;;;5073989;28;20436;-76
2021/04/14 06:13:47;;;;;;;20.10;13.52;;;9.30;86.20;;;;;;5069363;28;20439;-76
2021/04/14 06:16:15;;;;;;;16.88;10.55;;;9.40;85.90;;;;;;5076052;28;20448;-74
2021/04/14 06:18:42;;;;;;;18.15;10.05;;;9.40;85.30;;;;;;5089551;28;20417;-74
2021/04/14 06:21:09;;;;;;;18.60;10.02;;;9.40;85.00;;;;;;5080748;28;20411;-75
2021/04/14 06:23:35;;;;;;;17.00;8.77;;;9.40;84.80;;;;;;5077936;28;20417;-75
2021/04/14 06:26:14;;;;;;;15.05;8.65;;;9.40;84.40;;;;;;5088501;28;20501;-74
2021/04/14 06:28:42;;;;;;;11.70;6.97;;;9.40;83.90;;;;;;5074681;28;20515;-74
2021/04/14 06:31:11;;;;;;;12.55;7.50;;;9.40;83.50;;;;;;5078692;28;20430;-74
2021/04/14 06:33:40;;;;;;;12.85;7.25;;;9.40;83.00;;;;;;5067927;28;20426;-74
2021/04/14 06:36:08;;;;;;;17.23;10.85;;;9.50;84.00;;;;;;5072736;28;20461;-74
2021/04/14 06:38:38;;;;;;;12.90;7.22;;;9.50;83.00;;;;;;5070151;28;20883;-74
2021/04/14 06:44:23;;;;;;;11.00;5.30;;;9.60;82.80;;;;;;5047161;28;20527;-76
2021/04/14 06:46:53;;;;;;;11.10;5.10;;;9.60;81.60;;;;;;5085060;28;20426;-74
2021/04/14 06:49:24;;;;;;;10.30;5.30;;;9.60;81.10;;;;;;5083216;28;20480;-73
2021/04/14 06:51:54;;;;;;;11.43;5.55;;;9.60;81.40;;;;;;5069522;28;20431;-75
2021/04/14 06:54:31;;;;;;;15.32;5.78;;;9.60;81.40;;;;;;5071941;28;20423;-74
2021/04/14 06:57:03;;;;;;;10.20;5.72;;;9.70;81.70;;;;;;5082917;28;20884;-74
2021/04/14 06:59:33;;;;;;;10.35;5.57;;;9.70;82.10;;;;;;5088683;28;20847;-74
2021/04/14 07:02:06;;;;;;;10.18;5.95;;;9.70;81.90;;;;;;5081226;28;20409;-74
2021/04/14 07:04:37;;;;;;;11.82;5.30;;;9.70;81.80;;;;;;5084534;28;20410;-74
2021/04/14 07:07:08;;;;;;;9.65;5.28;;;9.70;82.10;;;;;;5073698;28;20412;-73
2021/04/14 07:09:36;;;;;;;10.23;4.57;;;9.70;82.20;;;;;;5078213;28;20667;-74
2021/04/14 07:12:07;;;;;;;7.78;3.85;;;9.80;82.10;;;;;;5074675;28;20428;-75
2021/04/14 07:14:34;;;;;;;9.68;3.38;;;9.80;81.10;;;;;;5075048;28;20851;-73
2021/04/14 07:17:23;;;;;;;8.40;3.80;;;9.90;80.50;;;;;;5083872;28;20533;-74
2021/04/14 07:20:16;;;;;;;7.05;4.00;;;10.00;80.30;;;;;;5078290;28;20508;-75
2021/04/14 07:22:58;;;;;;;8.32;3.53;;;10.10;79.50;;;;;;5089036;28;20467;-72
2021/04/14 07:25:32;;;;;;;11.00;3.75;;;10.20;78.30;;;;;;5084750;28;20817;-74
2021/04/14 07:28:09;;;;;;;7.43;2.60;;;10.30;77.20;;;;;;5085904;28;20798;-74
2021/04/14 07:30:39;;;;;;;6.15;2.40;;;10.40;76.90;;;;;;5072170;28;20420;-84
2021/04/14 07:33:18;;;;;;;6.23;2.00;;;10.50;75.70;;;;;;5078958;28;20422;-75
2021/04/14 07:35:52;;;;;;;7.65;2.40;;;10.60;74.10;;;;;;5079810;28;20449;-73
2021/04/14 07:38:28;;;;;;;7.93;2.30;;;10.60;72.70;;;;;;5075420;28;20917;-74
2021/04/14 07:41:02;;;;;;;7.88;2.08;;;10.70;72.60;;;;;;5071200;28;20502;-74
2021/04/14 07:43:38;;;;;;;6.82;2.00;;;10.70;72.30;;;;;;5072554;28;20407;-74
2021/04/14 07:46:08;;;;;;;6.80;2.00;;;10.70;71.60;;;;;;5077058;28;20409;-74
2021/04/14 07:48:39;;;;;;;6.28;2.03;;;10.70;71.40;;;;;;5072954;28;20411;-75
2021/04/14 07:51:10;;;;;;;5.65;2.00;;;10.80;70.40;;;;;;5078269;28;20419;-75
2021/04/14 07:53:38;;;;;;;4.05;1.77;;;10.80;68.20;;;;;;5069177;28;20502;-74
2021/04/14 07:56:07;;;;;;;4.03;1.50;;;10.80;67.50;;;;;;5071141;28;20416;-73
2021/04/14 07:58:37;;;;;;;4.22;1.40;;;10.80;66.50;;;;;;5078813;28;20419;-74
2021/04/14 08:01:13;;;;;;;5.72;1.67;;;10.70;66.60;;;;;;5076458;28;20420;-74
2021/04/14 08:03:40;;;;;;;6.95;1.60;;;10.80;66.00;;;;;;5073531;28;20423;-73
2021/04/14 08:06:09;;;;;;;4.43;1.50;;;10.70;66.00;;;;;;5073242;28;20408;-73
2021/04/14 08:08:36;;;;;;;5.63;1.80;;;10.80;66.50;;;;;;5065413;28;20603;-72
2021/04/14 08:11:07;;;;;;;4.30;1.58;;;10.90;66.20;;;;;;5077333;28;21003;-74
2021/04/14 08:13:39;;;;;;;6.13;1.70;;;10.90;64.40;;;;;;5072331;28;20454;-73
2021/04/14 08:16:15;;;;;;;11.23;5.00;;;10.90;64.30;;;;;;5079133;28;20466;-74
2021/04/14 08:18:52;;;;;;;4.43;1.50;;;11.00;63.50;;;;;;5078494;28;20425;-73
2021/04/14 08:21:29;;;;;;;4.13;1.30;;;11.00;62.70;;;;;;5083973;28;20410;-72
2021/04/14 08:23:57;;;;;;;7.18;1.40;;;11.10;61.60;;;;;;5076184;28;20426;-74
2021/04/14 08:26:24;;;;;;;4.60;1.30;;;11.10;60.30;;;;;;5077347;28;20430;-75
2021/04/14 08:28:52;;;;;;;3.50;1.02;;;11.00;59.60;;;;;;5079359;28;20892;-74
2021/04/14 08:31:34;;;;;;;4.47;1.20;;;11.00;60.30;;;;;;5075317;28;20524;-74
2021/04/14 08:34:10;;;;;;;4.28;1.40;;;11.00;60.20;;;;;;5077050;28;20449;-72
2021/04/14 08:36:46;;;;;;;4.38;1.33;;;11.00;61.10;;;;;;5081814;28;20912;-74
2021/04/14 08:39:16;;;;;;;5.40;1.50;;;11.00;60.30;;;;;;5087231;28;20422;-78
2021/04/14 08:41:43;;;;;;;2.73;1.20;;;10.90;59.10;;;;;;5080529;28;20415;-74
2021/04/14 08:44:12;;;;;;;3.13;1.38;;;10.90;58.80;;;;;;5077948;28;20446;-73
2021/04/14 08:46:43;;;;;;;3.63;1.52;;;11.00;59.40;;;;;;5078200;28;20777;-73
2021/04/14 08:49:14;;;;;;;2.63;1.20;;;11.00;59.50;;;;;;5075523;28;20423;-74
2021/04/14 08:51:43;;;;;;;3.38;1.25;;;11.00;59.40;;;;;;5070693;28;20477;-74
2021/04/14 08:54:15;;;;;;;5.25;1.35;;;11.00;59.00;;;;;;5071887;28;20440;-74
2021/04/14 08:56:41;;;;;;;4.00;1.02;;;11.00;59.00;;;;;;5083236;28;20520;-74
2021/04/14 08:59:08;;;;;;;4.87;1.40;;;11.00;59.30;;;;;;5082342;28;20419;-75
2021/04/14 09:01:35;;;;;;;7.00;1.30;;;11.00;59.50;;;;;;5074318;28;20409;-74
2021/04/14 09:04:05;;;;;;;5.95;1.55;;;11.00;58.00;;;;;;5081399;28;20455;-75
2021/04/14 09:06:32;;;;;;;5.60;1.60;;;11.00;59.80;;;;;;5072798;28;20403;-74
2021/04/14 09:09:03;;;;;;;3.80;1.50;;;11.00;61.90;;;;;;5069711;28;20412;-74
2021/04/14 09:11:31;;;;;;;4.20;1.48;;;11.00;62.60;;;;;;5076407;28;20430;-75
2021/04/14 09:14:03;;;;;;;6.32;1.55;;;11.00;63.00;;;;;;5070096;28;20451;-75
2021/04/14 09:16:34;;;;;;;5.47;1.42;;;10.90;62.20;;;;;;5066904;28;20978;-74
2021/04/14 09:19:10;;;;;;;6.37;1.50;;;10.90;63.50;;;;;;5067865;28;20403;-74
2021/04/14 09:21:51;;;;;;;4.60;1.90;;;10.90;66.30;;;;;;5068823;28;20419;-75
2021/04/14 09:24:40;;;;;;;7.68;1.88;;;10.90;66.90;;;;;;5073591;28;20443;-74
2021/04/14 09:27:18;;;;;;;7.47;1.88;;;10.90;68.00;;;;;;5071622;28;20655;-76
2021/04/14 09:30:02;;;;;;;6.55;1.90;;;10.80;67.50;;;;;;5067662;28;20506;-75
2021/04/14 09:32:54;;;;;;;6.13;1.70;;;10.80;67.30;;;;;;5067386;28;20434;-74
2021/04/14 09:35:39;;;;;;;6.43;1.30;;;10.80;68.00;;;;;;5068241;28;20435;-74
2021/04/14 09:38:11;;;;;;;6.40;1.65;;;10.80;68.80;;;;;;5069075;28;20419;-74
2021/04/14 09:40:38;;;;;;;10.48;3.13;;;10.80;69.90;;;;;;5067314;28;20427;-74
2021/04/14 09:43:17;;;;;;;10.93;2.70;;;10.80;70.10;;;;;;5068012;28;20426;-73
2021/04/14 09:45:55;;;;;;;9.80;2.15;;;10.80;70.30;;;;;;5068946;28;20411;-74
2021/04/14 09:48:21;;;;;;;13.50;2.22;;;10.80;69.90;;;;;;5065874;28;20419;-75
2021/04/14 09:50:50;;;;;;;6.88;1.70;;;10.80;69.60;;;;;;5067749;28;20424;-74
2021/04/14 09:53:24;;;;;;;4.30;1.50;;;10.80;69.30;;;;;;5067943;28;20427;-75
2021/04/14 09:55:54;;;;;;;6.43;1.52;;;10.80;68.50;;;;;;5068596;28;20415;-74
2021/04/14 09:58:25;;;;;;;4.63;1.60;;;10.80;67.60;;;;;;5067889;28;20411;-75
2021/04/14 10:00:56;;;;;;;5.45;1.42;;;10.80;67.50;;;;;;5069466;28;20776;-75
2021/04/14 10:03:34;;;;;;;5.70;1.30;;;10.90;67.70;;;;;;5069049;28;20746;-74
2021/04/14 10:06:08;;;;;;;4.82;1.17;;;10.90;66.10;;;;;;5067643;28;20423;-74
2021/04/14 10:08:37;;;;;;;5.20;1.20;;;10.90;66.20;;;;;;5068156;28;20877;-74
2021/04/14 10:11:04;;;;;;;4.65;1.05;;;11.00;65.90;;;;;;5068891;28;20415;-72
2021/04/14 10:13:33;;;;;;;4.93;1.20;;;11.10;65.30;;;;;;5067605;28;20419;-75
2021/04/14 10:16:00;;;;;;;5.38;1.10;;;11.20;63.30;;;;;;5068442;28;21112;-75
2021/04/14 10:18:29;;;;;;;5.38;1.35;;;11.20;62.20;;;;;;5068611;28;20408;-75
2021/04/14 10:20:56;;;;;;;6.13;2.67;;;11.30;62.60;;;;;;5068535;28;20411;-73
2021/04/14 10:23:25;;;;;;;2.43;0.80;;;11.40;63.00;;;;;;5068855;28;20412;-73
2021/04/14 10:26:04;;;;;;;3.80;1.05;;;11.40;62.80;;;;;;5068712;28;21201;-74
2021/04/14 10:28:30;;;;;;;2.78;0.95;;;11.60;60.50;;;;;;5067462;28;20424;-74
2021/04/14 10:31:04;;;;;;;4.05;1.00;;;11.70;58.50;;;;;;5068812;28;20498;-74
2021/04/14 10:33:31;;;;;;;4.00;1.00;;;11.80;58.90;;;;;;5069085;28;20937;-76
2021/04/14 10:36:10;;;;;;;3.50;0.90;;;11.90;58.30;;;;;;5068364;28;20769;-74
2021/04/14 10:38:37;;;;;;;4.75;1.20;;;12.00;58.40;;;;;;5067945;28;20403;-74
2021/04/14 10:41:22;;;;;;;3.83;1.20;;;12.10;58.30;;;;;;5069561;28;20806;-75
2021/04/14 10:43:50;;;;;;;2.33;0.80;;;12.20;57.30;;;;;;5083239;28;20425;-74
2021/04/14 10:46:22;;;;;;;4.30;0.98;;;12.20;57.00;;;;;;5089958;28;20408;-75
2021/04/14 10:48:57;;;;;;;4.60;1.75;;;12.20;55.90;;;;;;5088845;28;20462;-75
2021/04/14 10:51:27;;;;;;;5.40;1.23;;;12.20;56.70;;;;;;5097065;28;20519;-72
2021/04/14 10:53:57;;;;;;;3.25;0.95;;;12.20;56.30;;;;;;5091469;28;20409;-75
2021/04/14 10:56:27;;;;;;;4.32;1.38;;;12.10;57.00;;;;;;5069221;28;21008;-73
2021/04/14 10:58:54;;;;;;;5.63;1.27;;;12.10;57.20;;;;;;5088963;28;20453;-74
2021/04/14 11:01:33;;;;;;;8.27;1.30;;;12.10;58.20;;;;;;5088645;28;20414;-73
2021/04/14 11:04:09;;;;;;;5.53;1.30;;;12.00;58.60;;;;;;5089163;28;21239;-73
2021/04/14 11:06:37;;;;;;;6.53;1.40;;;11.90;58.80;;;;;;5090862;28;20409;-74
2021/04/14 11:09:06;;;;;;;5.57;1.50;;;11.80;58.70;;;;;;5070165;28;20470;-72
2021/04/14 11:11:35;;;;;;;4.38;1.20;;;11.80;59.80;;;;;;5088203;28;20434;-74
2021/04/14 11:14:05;;;;;;;6.38;1.50;;;11.90;60.00;;;;;;5071842;28;20425;-72
2021/04/14 11:16:33;;;;;;;6.10;1.40;;;11.90;60.10;;;;;;5092338;28;20420;-75
2021/04/14 11:19:00;;;;;;;3.88;1.10;;;12.00;58.70;;;;;;5090582;28;20433;-73
2021/04/14 11:21:30;;;;;;;4.00;1.00;;;12.10;55.70;;;;;;5094724;28;20410;-74
2021/04/14 11:24:06;;;;;;;5.18;1.40;;;12.20;54.70;;;;;;5089221;28;20944;-73
2021/04/14 11:26:36;;;;;;;4.53;1.03;;;12.20;55.50;;;;;;5098935;28;20414;-74
2021/04/14 11:29:03;;;;;;;5.28;0.95;;;12.30;55.80;;;;;;5070247;28;20910;-73
2021/04/14 11:31:34;;;;;;;4.47;1.20;;;12.30;55.50;;;;;;5081114;28;20416;-73
2021/04/14 11:34:11;;;;;;;8.87;1.20;;;12.30;56.40;;;;;;5091596;28;20504;-74
2021/04/14 11:36:39;;;;;;;5.47;1.30;;;12.30;56.00;;;;;;5104386;28;20430;-74
2021/04/14 11:39:16;;;;;;;4.70;0.90;;;12.30;55.30;;;;;;5088753;28;20901;-74
2021/04/14 11:41:45;;;;;;;3.90;0.80;;;12.30;53.50;;;;;;5104815;28;20396;-73
2021/04/14 11:44:18;;;;;;;4.32;0.80;;;12.30;52.40;;;;;;5111999;28;20412;-74
2021/04/14 11:46:56;;;;;;;4.45;0.80;;;12.30;52.70;;;;;;5082159;28;20453;-75
2021/04/14 11:49:28;;;;;;;6.80;1.10;;;12.20;54.10;;;;;;5109077;28;20407;-75
2021/04/14 11:51:58;;;;;;;5.78;1.10;;;12.20;56.50;;;;;;5110545;28;20472;-74
2021/04/14 11:54:30;;;;;;;4.53;0.93;;;12.20;58.20;;;;;;5096379;28;20413;-74
2021/04/14 11:57:03;;;;;;;7.93;1.10;;;12.10;59.10;;;;;;5091977;28;20406;-74
2021/04/14 11:59:33;;;;;;;5.75;1.10;;;12.10;59.70;;;;;;5096487;28;20415;-74
2021/04/14 12:02:02;;;;;;;5.90;1.40;;;12.00;61.70;;;;;;5092224;28;20471;-74
2021/04/14 12:04:29;;;;;;;5.72;1.40;;;12.00;65.00;;;;;;5092046;28;20406;-74
2021/04/14 12:06:55;;;;;;;6.90;1.70;;;11.90;68.10;;;;;;5084142;28;20422;-75
2021/04/14 12:09:22;;;;;;;4.70;1.65;;;11.90;69.70;;;;;;5091829;28;20425;-74
2021/04/14 12:12:00;;;;;;;4.88;1.25;;;11.80;72.20;;;;;;5091672;28;20913;-74
2021/04/14 12:14:26;;;;;;;3.50;1.20;;;11.70;74.00;;;;;;5105813;28;20746;-75
2021/04/14 12:16:53;;;;;;;5.50;1.35;;;11.60;75.60;;;;;;5091649;28;20421;-75
2021/04/14 12:19:19;;;;;;;3.05;1.38;;;11.60;77.50;;;;;;5104837;28;20499;-74
2021/04/14 12:21:46;;;;;;;6.43;1.53;;;11.50;79.40;;;;;;5088831;28;20412;-75
2021/04/14 12:24:12;;;;;;;4.57;1.50;;;11.30;80.00;;;;;;5102084;28;20503;-75
2021/04/14 12:26:39;;;;;;;3.67;1.10;;;11.20;81.00;;;;;;5093182;28;20444;-75
2021/04/14 12:29:06;;;;;;;3.95;1.27;;;11.20;80.50;;;;;;5096998;28;20410;-74
2021/04/14 12:31:32;;;;;;;4.28;1.20;;;11.10;79.50;;;;;;5091613;28;20452;-74
2021/04/14 12:33:59;;;;;;;2.53;1.00;;;11.10;79.20;;;;;;5102043;28;20416;-75
2021/04/14 12:36:26;;;;;;;3.80;1.85;;;11.10;79.80;;;;;;5096336;28;20489;-75
2021/04/14 12:38:52;;;;;;;3.55;1.63;;;11.10;78.90;;;;;;5091724;28;20445;-76
2021/04/14 12:41:18;;;;;;;4.20;1.23;;;11.10;77.20;;;;;;5074259;28;20428;-75
2021/04/14 12:43:45;;;;;;;3.60;1.20;;;11.30;77.60;;;;;;5091253;28;20413;-76
2021/04/14 12:46:12;;;;;;;4.60;1.25;;;11.50;79.90;;;;;;5091232;28;20430;-75
2021/04/14 12:48:43;;;;;;;4.72;1.33;;;11.80;79.60;;;;;;5093933;28;20443;-75
2021/04/14 12:51:24;;;;;;;6.15;1.70;;;12.10;77.30;;;;;;5110268;28;20416;-75
2021/04/14 12:53:55;;;;;;;4.70;1.40;;;12.50;75.40;;;;;;5101042;28;20416;-76
2021/04/14 12:56:27;;;;;;;4.13;1.30;;;12.80;74.90;;;;;;5093570;28;20928;-75